Flight Track Log - Related Links

Times and Time Zones

All times are in EDT time to prevent confusion due to time zone crossing. See the N184RB flight status page for this flight to view local times or setup timezone preferences in your user account.

Time Position Orientation Groundspeed Altitude Reporting Facility
EDT Latitude Longitude Course Direction KTS MPH feet Rate Location/Type
Sat 06:18:01 PM 39.8919 -84.2217 167° South 110 127 1,300  Level Indianapolis Center
Sat 06:19:09 PM 39.8561 -84.2111 167° South 145 167 3,100 1,535 Climbing Indianapolis Center
Sat 06:20:10 PM 39.8264 -84.1786 140° Southeast 146 168 4,600 1,328 Climbing Indianapolis Center
Sat 06:21:11 PM 39.8217 -84.1239 96° East 163 188 5,800 1,463 Climbing Indianapolis Center
Sat 06:22:13 PM 39.8400 -84.0700 66° East 163 188 7,600 1,659 Climbing Indianapolis Center
Sat 06:23:14 PM 39.8511 -84.0128 76° East 161 185 9,200 1,463 Climbing Indianapolis Center
Sat 06:24:16 PM 39.8636 -83.9564 74° East 162 186 10,600 1,268 Climbing Indianapolis Center
Sat 06:25:17 PM 39.8761 -83.8989 74° East 164 189 11,800 1,220 Climbing Indianapolis Center
Sat 06:26:19 PM 39.8889 -83.8394 74° East 168 193 13,100 1,220 Climbing Indianapolis Center
Sat 06:27:20 PM 39.9028 -83.7781 74° East 173 199 14,300 1,220 Climbing Indianapolis Center
Sat 06:28:22 PM 39.9169 -83.7158 73° East 176 203 15,600 1,122 Climbing Indianapolis Center
Sat 06:29:23 PM 39.9542 -83.6694 44° Northeast 183 211 16,600 1,073 Climbing Indianapolis Center
Sat 06:30:25 PM 39.9836 -83.6006 61° Northeast 183 211 17,800 976 Climbing Indianapolis Center
Sat 06:31:26 PM 40.0022 -83.5353 70° East 187 215 18,600 829 Climbing Indianapolis Center
Sat 06:32:28 PM 40.0119 -83.4647 80° East 195 224 19,500 878 Climbing Indianapolis Center
Sat 06:33:29 PM 40.0242 -83.3942 77° East 196 226 20,400 787 Climbing Indianapolis Center
Sat 06:34:30 PM 40.0367 -83.3228 77° East 199 229 21,100 732 Climbing Indianapolis Center
Sat 06:35:32 PM 40.0467 -83.2489 80° East 203 234 21,900 390 Climbing Indianapolis Center
Sat 06:36:33 PM 40.0536 -83.1672 84° East 221 254 21,900  Level Indianapolis Center
Sat 06:37:35 PM 40.0583 -83.0803 86° East 238 274 21,900  Level Indianapolis Center
Sat 06:38:36 PM 40.0714 -82.9936 79° East 244 281 21,900  Level Indianapolis Center
Sat 06:39:37 PM 40.1147 -82.9244 51° Northeast 245 282 21,900  Level Indianapolis Center
Sat 06:40:39 PM 40.1547 -82.8528 54° Northeast 242 278 21,900  Level Indianapolis Center
Sat 06:41:40 PM 40.1961 -82.7858 51° Northeast 236 272 21,900 -244 Level Indianapolis Center
Sat 06:42:42 PM 40.2358 -82.7169 53° Northeast 236 272 21,400 -439 Descending Indianapolis Center
Sat 06:43:43 PM 40.2836 -82.6367 52° Northeast 248 285 21,000 -197 Descending Indianapolis Center
Sat 06:44:44 PM 40.3242 -82.5667 53° Northeast 241 277 21,000  Level Indianapolis Center
Sat 06:45:46 PM 40.3642 -82.4950 54° Northeast 241 277 21,000  Level Indianapolis Center
Sat 06:46:47 PM 40.3994 -82.4211 58° Northeast 239 275 21,000  Level Indianapolis Center
Sat 06:47:48 PM 40.4375 -82.3475 56° Northeast 242 278 21,000  Level Indianapolis Center
Sat 06:48:50 PM 40.4747 -82.2731 57° Northeast 241 277 21,000 -49 Level Indianapolis Center
Sat 06:49:51 PM 40.5131 -82.2000 55° Northeast 241 277 20,900 -293 Descending Indianapolis Center
Sat 06:50:53 PM 40.5503 -82.1231 57° Northeast 247 284 20,400 -732 Descending Indianapolis Center
Sat 06:51:54 PM 40.5889 -82.0456 57° Northeast 250 288 19,400 -984 Descending Indianapolis Center
Sat 06:52:55 PM 40.6264 -81.9703 57° Northeast 246 283 18,400 -891 Descending Indianapolis Center
Sat 06:53:35 PM 40.6492 -81.9239 57° Northeast 235 270 17,900 -780 Descending Cleveland Center
Sat 06:54:35 PM 40.6856 -81.8536 56° Northeast 230 265 17,100 -800 Descending Cleveland Center
Sat 06:55:35 PM 40.7175 -81.7883 57° Northeast 225 259 16,300 -750 Descending Cleveland Center
Sat 06:56:35 PM 40.7514 -81.7206 57° Northeast 225 259 15,600 -750 Descending Cleveland Center
Sat 06:57:35 PM 40.7875 -81.6472 57° Northeast 220 253 14,800 -750 Descending Cleveland Center
Sat 06:58:35 PM 40.8217 -81.5817 55° Northeast 220 253 14,100 -600 Descending Cleveland Center
Sat 06:59:35 PM 40.8514 -81.5164 59° Northeast 213 245 13,600 -650 Descending Cleveland Center
Sat 07:00:35 PM 40.8872 -81.4483 55° Northeast 218 251 12,800 -650 Descending Cleveland Center
Sat 07:01:35 PM 40.9169 -81.3856 58° Northeast 209 241 12,300 -550 Descending Cleveland Center
Sat 07:02:35 PM 40.9464 -81.3253 57° Northeast 198 228 11,700 -600 Descending Cleveland Center
Sat 07:03:35 PM 40.9739 -81.2678 58° Northeast 191 220 11,100 -550 Descending Cleveland Center
Sat 07:04:35 PM 41.0036 -81.2078 57° Northeast 191 220 10,600 -650 Descending Cleveland Center
Sat 07:05:35 PM 41.0331 -81.1475 57° Northeast 191 220 9,800 -650 Descending Cleveland Center
Sat 07:06:35 PM 41.0644 -81.0897 54° Northeast 191 220 9,300 -500 Descending Cleveland Center
Sat 07:07:35 PM 41.0919 -81.0239 61° Northeast 196 226 8,800 -500 Descending Cleveland Center
Sat 07:08:35 PM 41.1214 -80.9664 56° Northeast 191 220 8,300 -750 Descending Cleveland Center
Sat 07:09:35 PM 41.1508 -80.9086 56° Northeast 191 220 7,300 -850 Descending Cleveland Center
Sat 07:10:35 PM 41.1781 -80.8508 58° Northeast 191 220 6,600 -1,100 Descending Cleveland Center
Sat 07:11:35 PM 41.2072 -80.8094 47° Northeast 178 205 5,100 -1,200 Descending Cleveland Center
Sat 07:12:35 PM 41.2447 -80.7764 34° Northeast 157 181 4,200 -900 Descending Cleveland Center
Sat 07:13:35 PM 41.2783 -80.7544 26° Northeast 142 163 3,300 -950 Descending Cleveland Center
Sat 07:14:35 PM 41.2928 -80.7214 60° Northeast 126 145 2,300 2,850 Descending Cleveland Center
Sat 07:15:35 PM 41.3303 -80.6936 29° Northeast 126 145 9,000 6,700 Climbing Cleveland Center
Sat 07:17:00 PM 41.2616 -80.6804 166° South  Level Estimated
Sat 07:24:00 PM 41.2616 -80.6804 56° Northeast  Level Estimated

Login

Don't have an account? Register now (free) for customized features, flight alerts, and more!